createdAt,value
2018-08-19T00:00:55.030Z,72.00
2018-08-19T00:03:25.291Z,71.60
2018-08-19T00:05:55.499Z,71.90
2018-08-19T00:08:25.705Z,71.90
2018-08-19T00:11:06.561Z,72.50
2018-08-19T00:13:38.013Z,72.70
2018-08-19T00:16:09.632Z,72.80
2018-08-19T00:18:40.289Z,73.20
2018-08-19T00:21:12.495Z,73.60
2018-08-19T00:23:47.942Z,73.30
2018-08-19T00:26:18.530Z,73.20
2018-08-19T00:28:48.565Z,73.70
2018-08-19T00:31:18.713Z,73.90
2018-08-19T00:33:49.284Z,73.70
2018-08-19T00:36:31.608Z,73.10
2018-08-19T00:39:01.756Z,72.90
2018-08-19T00:41:31.916Z,72.80
2018-08-19T00:44:02.004Z,72.10
2018-08-19T00:46:33.123Z,71.30
2018-08-19T00:49:03.219Z,71.00
2018-08-19T00:51:33.343Z,70.30
2018-08-19T00:54:03.487Z,70.40
2018-08-19T00:56:33.651Z,70.10
2018-08-19T00:59:04.020Z,69.30
2018-08-19T01:01:37.145Z,69.10
2018-08-19T01:04:09.925Z,69.20
2018-08-19T01:06:44.952Z,68.60
2018-08-19T01:09:15.040Z,68.40
2018-08-19T01:11:45.292Z,68.60
2018-08-19T01:14:16.258Z,68.50
2018-08-19T01:16:46.450Z,68.60
2018-08-19T01:19:17.997Z,68.60
2018-08-19T01:21:51.946Z,68.30
2018-08-19T01:24:22.331Z,69.20
2018-08-19T01:26:52.464Z,69.60
2018-08-19T01:29:36.497Z,70.00
2018-08-19T01:32:15.205Z,70.20
2018-08-19T01:34:47.221Z,69.70
2018-08-19T01:37:17.319Z,69.90
2018-08-19T01:39:47.363Z,69.70
2018-08-19T01:42:17.435Z,70.00
2018-08-19T01:44:47.452Z,69.80
2018-08-19T01:47:17.507Z,69.60
2018-08-19T01:49:47.535Z,69.70
2018-08-19T01:52:17.701Z,71.50
2018-08-19T01:54:47.717Z,71.50
2018-08-19T01:57:17.820Z,69.60
2018-08-19T01:59:47.854Z,69.10
2018-08-19T02:02:17.971Z,68.80
2018-08-19T02:04:53.014Z,70.30
2018-08-19T02:07:23.193Z,70.00
2018-08-19T02:10:03.564Z,69.80
2018-08-19T02:12:39.554Z,69.40
2018-08-19T02:15:10.791Z,69.90
2018-08-19T02:17:46.353Z,70.20
2018-08-19T02:20:16.517Z,71.40
2018-08-19T02:22:52.390Z,70.80
2018-08-19T02:25:22.440Z,70.70
2018-08-19T02:27:52.481Z,70.50
2018-08-19T02:30:22.557Z,71.10
2018-08-19T02:32:55.661Z,71.40
2018-08-19T02:35:25.783Z,71.70
2018-08-19T02:37:55.814Z,71.40
2018-08-19T02:40:30.806Z,70.40
2018-08-19T02:43:01.072Z,70.20
2018-08-19T02:45:31.250Z,69.90
2018-08-19T02:48:01.332Z,69.80
2018-08-19T02:50:31.389Z,70.50
2018-08-19T02:53:01.423Z,69.60
2018-08-19T02:55:31.449Z,69.20
2018-08-19T02:58:06.601Z,69.50
2018-08-19T03:00:36.682Z,69.80
2018-08-19T03:03:06.743Z,70.50
2018-08-19T03:05:37.778Z,71.60
2018-08-19T03:08:07.947Z,71.20
2018-08-19T03:10:37.932Z,71.50
2018-08-19T03:13:07.974Z,70.90
2018-08-19T03:15:38.872Z,70.90
2018-08-19T03:18:08.960Z,71.20
2018-08-19T03:20:38.959Z,71.90
2018-08-19T03:23:09.076Z,71.90
2018-08-19T03:25:39.088Z,71.80
2018-08-19T03:28:09.178Z,71.50
2018-08-19T03:30:40.896Z,71.20
2018-08-19T03:33:12.899Z,70.90
2018-08-19T03:35:43.137Z,70.40
2018-08-19T03:38:15.387Z,70.90
2018-08-19T03:40:45.384Z,71.10
2018-08-19T03:43:15.405Z,71.40
2018-08-19T03:45:45.425Z,72.00
2018-08-19T03:48:15.455Z,72.50
2018-08-19T03:50:45.466Z,73.00
2018-08-19T03:53:15.710Z,73.60
2018-08-19T03:55:45.724Z,74.00
2018-08-19T03:58:15.810Z,74.40
2018-08-19T04:00:46.231Z,73.20
2018-08-19T04:03:21.935Z,72.50
2018-08-19T04:05:56.292Z,72.40
2018-08-19T04:09:00.298Z,71.90
2018-08-19T04:11:30.339Z,71.90
2018-08-19T04:14:00.417Z,71.00
2018-08-19T04:16:30.477Z,70.70
2018-08-19T04:19:07.374Z,69.90
2018-08-19T04:21:37.393Z,69.60
2018-08-19T04:24:07.608Z,68.70
2018-08-19T04:26:37.620Z,69.20
2018-08-19T04:29:11.782Z,69.00
2018-08-19T04:31:41.836Z,69.00
2018-08-19T04:34:12.883Z,69.00
2018-08-19T04:36:42.950Z,69.20
2018-08-19T04:39:13.011Z,69.40
2018-08-19T04:41:43.068Z,69.30
2018-08-19T04:44:13.153Z,69.20
2018-08-19T04:46:43.180Z,69.20
2018-08-19T04:49:14.448Z,69.80
2018-08-19T04:51:44.511Z,69.30
2018-08-19T04:54:14.615Z,70.00
2018-08-19T04:56:44.754Z,70.70
2018-08-19T04:59:14.835Z,71.00
2018-08-19T05:01:46.428Z,71.50
2018-08-19T05:04:16.478Z,71.10
2018-08-19T05:06:46.565Z,71.20
2018-08-19T05:09:16.627Z,71.30
2018-08-19T05:11:46.731Z,70.40
2018-08-19T05:14:16.783Z,70.60
2018-08-19T05:16:46.829Z,71.60
2018-08-19T05:19:17.480Z,72.30
2018-08-19T05:21:47.539Z,71.50
2018-08-19T05:24:17.607Z,72.60
2018-08-19T05:26:51.133Z,72.50
2018-08-19T05:29:21.128Z,72.60
2018-08-19T05:31:58.266Z,75.40
2018-08-19T05:34:35.827Z,74.70
2018-08-19T05:37:06.001Z,75.90
2018-08-19T05:39:36.139Z,75.60
2018-08-19T05:42:12.585Z,74.30
2018-08-19T05:44:43.087Z,74.40
2018-08-19T05:47:16.917Z,74.90
2018-08-19T05:49:47.878Z,75.00
2018-08-19T05:52:21.136Z,75.40
2018-08-19T05:55:07.513Z,76.10
2018-08-19T05:57:37.548Z,75.20
2018-08-19T06:00:13.161Z,75.90
2018-08-19T06:02:43.767Z,75.70
2018-08-19T06:05:13.839Z,76.00
2018-08-19T06:07:44.157Z,77.70
2018-08-19T06:10:14.112Z,77.30
2018-08-19T06:12:44.158Z,76.50
2018-08-19T06:15:14.187Z,76.80
2018-08-19T06:17:44.282Z,77.70
2018-08-19T06:20:14.717Z,76.40
2018-08-19T06:22:44.760Z,74.10
2018-08-19T06:25:14.804Z,72.90
2018-08-19T06:27:46.821Z,74.70
2018-08-19T06:30:17.711Z,74.30
2018-08-19T06:32:48.051Z,74.80
2018-08-19T06:35:18.063Z,73.10
2018-08-19T06:37:48.187Z,77.40
2018-08-19T06:40:19.535Z,78.60
2018-08-19T06:42:49.635Z,78.20
2018-08-19T06:45:19.727Z,77.50
2018-08-19T06:47:49.847Z,76.80
2018-08-19T06:50:24.655Z,76.80
2018-08-19T06:52:55.506Z,76.20
2018-08-19T06:55:25.732Z,77.00
2018-08-19T06:57:59.291Z,77.10
2018-08-19T07:00:30.758Z,78.20
2018-08-19T07:03:03.942Z,78.20
2018-08-19T07:05:34.789Z,77.20
2018-08-19T07:08:04.896Z,75.40
2018-08-19T07:10:37.693Z,76.10
2018-08-19T07:13:11.085Z,77.30
2018-08-19T07:15:42.279Z,77.50
2018-08-19T07:18:14.968Z,76.50
2018-08-19T07:20:45.541Z,77.20
2018-08-19T07:23:15.676Z,77.10
2018-08-19T07:25:46.427Z,76.60
2018-08-19T07:28:18.025Z,79.00
2018-08-19T07:30:48.104Z,80.00
2018-08-19T07:33:18.233Z,79.80
2018-08-19T07:35:48.231Z,79.60
2018-08-19T07:38:18.272Z,77.90
2018-08-19T07:40:48.381Z,77.20
2018-08-19T07:43:18.395Z,76.10
2018-08-19T07:45:48.462Z,75.60
2018-08-19T07:48:18.518Z,75.20
2018-08-19T07:50:48.605Z,74.60
2018-08-19T07:53:18.634Z,75.40
2018-08-19T07:55:48.721Z,76.30
2018-08-19T07:58:34.250Z,71.30
2018-08-19T08:01:04.899Z,69.10
2018-08-19T08:03:34.973Z,67.30
2018-08-19T08:06:05.071Z,67.30
2018-08-19T08:08:35.141Z,68.60
2018-08-19T08:11:05.309Z,68.00
2018-08-19T08:13:35.393Z,67.70
2018-08-19T08:16:05.547Z,68.00
2018-08-19T08:18:35.627Z,68.00
2018-08-19T08:21:15.259Z,68.60
2018-08-19T08:23:45.197Z,66.30
2018-08-19T08:26:15.800Z,65.00
2018-08-19T08:28:52.973Z,64.40
2018-08-19T08:31:23.684Z,64.90
2018-08-19T08:33:54.281Z,63.10
2018-08-19T08:36:24.396Z,62.90
2018-08-19T08:38:54.468Z,61.50
2018-08-19T09:48:59.010Z,43.90
2018-08-19T09:51:29.090Z,44.00
2018-08-19T09:53:59.159Z,43.40
2018-08-19T09:56:34.299Z,44.00
2018-08-19T09:59:05.238Z,43.60
2018-08-19T10:01:42.438Z,44.10
2018-08-19T10:04:22.961Z,43.00
2018-08-19T10:07:16.257Z,44.10
2018-08-19T10:09:46.295Z,44.20
2018-08-19T10:12:16.509Z,44.30
2018-08-19T10:14:46.527Z,44.40
2018-08-19T10:17:16.577Z,42.70
2018-08-19T10:19:46.583Z,42.30
2018-08-19T10:22:16.706Z,43.10
2018-08-19T10:24:46.756Z,42.70
2018-08-19T10:27:16.864Z,42.20
2018-08-19T10:29:46.974Z,42.60
2018-08-19T10:32:17.125Z,43.90
2018-08-19T10:34:47.412Z,41.60
2018-08-19T10:37:17.533Z,41.10
2018-08-19T10:39:47.707Z,42.00
2018-08-19T10:42:24.735Z,42.00
2018-08-19T10:44:54.855Z,42.00
2018-08-19T10:47:25.139Z,42.50
2018-08-19T10:50:00.890Z,42.90
2018-08-19T10:52:32.564Z,42.00
2018-08-19T10:55:02.686Z,42.30
2018-08-19T10:57:32.934Z,42.50
2018-08-19T11:00:03.042Z,44.60
2018-08-19T11:02:33.416Z,43.30
2018-08-19T11:05:03.541Z,42.20
2018-08-19T11:07:33.900Z,42.90
2018-08-19T11:10:26.651Z,44.20
2018-08-19T11:12:58.099Z,41.50
2018-08-19T11:15:50.424Z,41.60
2018-08-19T11:18:39.967Z,41.00
2018-08-19T11:21:15.524Z,41.40
2018-08-19T11:23:46.996Z,41.30
2018-08-19T11:26:17.089Z,41.50
2018-08-19T11:28:52.774Z,41.00
2018-08-19T11:31:28.651Z,40.70
2018-08-19T11:34:02.372Z,40.40
2018-08-19T11:36:38.726Z,42.70
2018-08-19T11:39:17.361Z,42.00
2018-08-19T11:41:47.460Z,42.90
2018-08-19T11:44:18.289Z,40.80
2018-08-19T11:46:48.357Z,40.70
2018-08-19T11:49:19.558Z,40.10
2018-08-19T11:51:55.126Z,39.80
2018-08-19T11:54:25.936Z,40.70
2018-08-19T11:57:03.479Z,40.30
2018-08-19T11:59:36.567Z,40.40
2018-08-19T12:02:09.284Z,40.10
2018-08-19T12:04:39.275Z,39.50
2018-08-19T12:07:09.431Z,38.30
2018-08-19T12:09:45.247Z,40.30
2018-08-19T12:12:15.271Z,40.00
2018-08-19T12:14:45.434Z,40.30
2018-08-19T12:17:15.550Z,40.40
2018-08-19T12:19:45.599Z,40.20
2018-08-19T12:22:15.683Z,40.80
2018-08-19T12:24:48.051Z,39.70
2018-08-19T12:27:20.878Z,39.80
2018-08-19T12:29:51.712Z,40.80
2018-08-19T12:32:26.481Z,41.10
2018-08-19T12:35:02.435Z,41.30
2018-08-19T12:37:33.648Z,40.00
2018-08-19T12:40:03.783Z,39.90
2018-08-19T12:42:38.898Z,39.50
2018-08-19T12:45:09.528Z,40.40
2018-08-19T12:47:39.576Z,41.10
2018-08-19T12:50:13.176Z,39.50
2018-08-19T12:52:43.645Z,41.00
2018-08-19T12:55:16.741Z,41.10
2018-08-19T12:57:48.145Z,39.00
2018-08-19T13:00:19.833Z,39.40
2018-08-19T13:02:51.975Z,39.10
2018-08-19T13:05:22.491Z,39.90
2018-08-19T13:07:52.687Z,39.70
2018-08-19T13:10:23.281Z,40.60
2018-08-19T13:12:54.626Z,41.00
2018-08-19T13:15:25.867Z,39.40
2018-08-19T13:17:55.978Z,39.40
2018-08-19T13:20:26.022Z,39.00
2018-08-19T13:23:01.487Z,40.10
2018-08-19T13:25:31.859Z,40.30
2018-08-19T13:28:01.964Z,40.60
2018-08-19T13:30:31.986Z,41.10
2018-08-19T13:33:02.015Z,40.90
2018-08-19T13:35:32.045Z,39.30
2018-08-19T13:38:02.029Z,40.50
2018-08-19T13:40:32.121Z,39.50
2018-08-19T13:43:02.217Z,40.80
2018-08-19T13:45:32.360Z,40.00
2018-08-19T13:48:02.282Z,39.60
2018-08-19T13:50:32.365Z,41.30
2018-08-19T13:53:02.498Z,40.60
2018-08-19T13:55:32.606Z,40.50
2018-08-19T13:58:02.710Z,41.20
2018-08-19T14:00:33.784Z,41.50
2018-08-19T14:03:04.016Z,42.50
2018-08-19T14:05:34.080Z,41.70
2018-08-19T14:08:04.113Z,43.20
2018-08-19T14:10:34.166Z,42.20
2018-08-19T14:13:04.243Z,42.30
2018-08-19T14:15:34.297Z,41.90
2018-08-19T14:18:04.401Z,42.80
2018-08-19T14:20:34.491Z,44.80
2018-08-19T14:23:04.519Z,43.70
2018-08-19T14:25:34.569Z,43.40
2018-08-19T14:28:04.650Z,43.40
2018-08-19T14:30:34.865Z,42.90
2018-08-19T14:33:04.986Z,43.40
2018-08-19T14:35:35.067Z,43.80
2018-08-19T14:38:05.159Z,41.90
2018-08-19T14:40:35.299Z,41.90
2018-08-19T14:43:05.468Z,42.90
2018-08-19T14:45:35.543Z,43.70
2018-08-19T14:48:05.687Z,43.70
2018-08-19T14:50:35.752Z,42.50
2018-08-19T14:53:05.877Z,42.40
2018-08-19T14:55:35.974Z,42.60
2018-08-19T14:58:06.130Z,42.70
2018-08-19T15:00:36.267Z,43.00
2018-08-19T15:03:06.384Z,42.20
2018-08-19T15:05:36.465Z,42.10
2018-08-19T15:08:12.716Z,40.80
2018-08-19T15:10:43.650Z,41.10
2018-08-19T15:13:13.741Z,42.00
2018-08-19T15:15:43.824Z,41.50
2018-08-19T15:18:13.946Z,40.70
2018-08-19T15:20:44.006Z,42.40
2018-08-19T15:23:21.093Z,41.50
2018-08-19T15:25:51.186Z,41.10
2018-08-19T15:28:21.271Z,40.60
2018-08-19T15:30:51.321Z,41.50
2018-08-19T15:33:23.014Z,42.00
2018-08-19T15:35:53.078Z,41.20
2018-08-19T15:38:23.204Z,42.10
2018-08-19T15:40:53.359Z,42.00
2018-08-19T15:43:23.363Z,42.10
2018-08-19T15:45:53.455Z,42.50
2018-08-19T15:48:23.541Z,41.70
2018-08-19T15:50:57.991Z,42.20
2018-08-19T15:53:28.098Z,42.40
2018-08-19T15:55:58.220Z,42.10
2018-08-19T15:58:29.560Z,42.20
2018-08-19T16:00:59.665Z,42.30
2018-08-19T16:03:29.749Z,42.50
2018-08-19T16:05:59.792Z,42.70
2018-08-19T16:08:30.070Z,42.50
2018-08-19T16:11:00.108Z,42.70
2018-08-19T16:13:30.389Z,43.30
2018-08-19T16:16:00.515Z,43.20
2018-08-19T16:18:30.583Z,43.90
2018-08-19T16:21:03.590Z,44.10
2018-08-19T16:23:33.978Z,43.60
2018-08-19T16:26:04.099Z,44.00
2018-08-19T16:28:35.090Z,45.30
2018-08-19T16:31:05.238Z,45.90
2018-08-19T16:33:35.348Z,45.50
2018-08-19T16:36:05.485Z,45.60
2018-08-19T16:38:35.569Z,45.80
2018-08-19T16:41:05.659Z,46.20
2018-08-19T16:43:35.644Z,46.30
2018-08-19T16:46:05.779Z,46.10
2018-08-19T16:48:35.791Z,46.50
2018-08-19T16:51:05.998Z,46.30
2018-08-19T16:53:36.133Z,47.10
2018-08-19T16:56:06.227Z,46.60
2018-08-19T16:58:36.324Z,47.00
2018-08-19T17:01:06.572Z,47.20
2018-08-19T17:03:38.851Z,47.70
2018-08-19T17:06:12.735Z,48.00
2018-08-19T17:08:43.378Z,47.90
2018-08-19T17:11:15.105Z,48.60
2018-08-19T17:13:45.181Z,48.60
2018-08-19T17:16:15.282Z,48.80
2018-08-19T17:18:45.332Z,49.50
2018-08-19T17:21:15.354Z,49.50
2018-08-19T17:23:49.607Z,49.70
2018-08-19T17:26:22.008Z,50.00
2018-08-19T17:28:52.246Z,50.70
2018-08-19T17:31:22.504Z,50.80
2018-08-19T17:33:52.533Z,51.30
2018-08-19T17:36:40.110Z,51.60
2018-08-19T17:39:14.584Z,51.80
2018-08-19T17:41:44.713Z,51.70
2018-08-19T17:44:14.798Z,51.90
2018-08-19T17:46:44.847Z,52.80
2018-08-19T17:49:19.032Z,52.50
2018-08-19T17:51:49.165Z,52.50
2018-08-19T17:54:23.437Z,53.50
2018-08-19T17:56:53.531Z,53.30
2018-08-19T17:59:23.828Z,53.30
2018-08-19T18:01:53.889Z,52.80
2018-08-19T18:04:27.793Z,53.30
2018-08-19T18:06:57.943Z,53.70
2018-08-19T18:09:28.051Z,54.70
2018-08-19T18:12:04.384Z,54.70
2018-08-19T18:14:35.488Z,54.80
2018-08-19T18:17:05.698Z,54.90
2018-08-19T18:19:36.416Z,54.90
2018-08-19T18:22:06.740Z,55.20
2018-08-19T18:24:36.828Z,55.00
2018-08-19T18:27:07.356Z,55.20
2018-08-19T18:29:45.514Z,55.50
2018-08-19T18:32:15.715Z,55.20
2018-08-19T18:34:45.786Z,55.80
2018-08-19T18:37:15.911Z,56.00
2018-08-19T18:39:46.052Z,56.10
2018-08-19T18:42:34.685Z,56.60
2018-08-19T18:45:11.052Z,56.70
2018-08-19T18:47:53.797Z,57.10
2018-08-19T18:50:26.347Z,57.70
2018-08-19T18:52:56.555Z,58.60
2018-08-19T18:55:26.798Z,58.30
2018-08-19T18:57:57.765Z,58.60
2018-08-19T19:00:28.449Z,59.00
2018-08-19T19:02:59.875Z,59.30
2018-08-19T19:05:41.283Z,59.60
2018-08-19T19:08:13.380Z,59.90
2018-08-19T19:11:06.073Z,59.60
2018-08-19T19:13:36.834Z,59.70
2018-08-19T19:16:06.984Z,59.80
2018-08-19T19:18:37.137Z,60.20
2018-08-19T19:21:07.607Z,60.30
2018-08-19T19:23:40.353Z,60.40
2018-08-19T19:26:10.997Z,60.60
2018-08-19T19:28:41.129Z,60.40
2018-08-19T19:31:14.498Z,61.00
2018-08-19T19:33:44.595Z,60.70
2018-08-19T19:36:18.694Z,60.70
2018-08-19T19:38:54.132Z,60.90
2018-08-19T19:41:27.914Z,61.10
2018-08-19T19:43:58.026Z,61.00
2018-08-19T19:46:28.143Z,61.10
2018-08-19T19:48:58.258Z,61.80
2018-08-19T19:51:28.316Z,62.30
2018-08-19T19:53:58.414Z,62.50
2018-08-19T19:56:28.457Z,62.90
2018-08-19T19:58:58.466Z,63.50
2018-08-19T20:01:28.518Z,64.00
2018-08-19T20:03:58.917Z,64.90
2018-08-19T20:06:28.963Z,65.30
2018-08-19T20:09:00.360Z,66.10
2018-08-19T20:11:31.382Z,66.20
2018-08-19T20:14:03.041Z,67.00
2018-08-19T20:16:33.131Z,67.20
2018-08-19T20:19:03.153Z,67.20
2018-08-19T20:21:36.809Z,68.00
2018-08-19T20:24:07.264Z,68.20
2018-08-19T20:26:37.329Z,68.60
2018-08-19T20:29:07.471Z,69.50
2018-08-19T20:31:37.516Z,69.00
2018-08-19T20:34:07.870Z,69.50
2018-08-19T20:36:37.952Z,70.00
2018-08-19T20:39:08.704Z,70.00
2018-08-19T20:41:38.789Z,70.30
2018-08-19T20:44:09.967Z,71.00
2018-08-19T20:46:44.358Z,71.30
2018-08-19T20:49:14.983Z,71.60
2018-08-19T20:51:45.125Z,71.50
2018-08-19T20:54:15.172Z,71.70
2018-08-19T20:56:45.198Z,72.40
2018-08-19T20:59:49.397Z,72.20
2018-08-19T21:02:19.663Z,72.50
2018-08-19T21:04:49.696Z,72.40
2018-08-19T21:07:19.787Z,72.70
2018-08-19T21:09:49.840Z,72.80
2018-08-19T21:12:19.957Z,73.20
2018-08-19T21:14:50.034Z,73.40
2018-08-19T21:17:20.369Z,73.80
2018-08-19T21:19:50.416Z,74.60
2018-08-19T21:22:20.496Z,75.10
2018-08-19T21:24:50.625Z,75.40
2018-08-19T21:27:20.692Z,75.60
2018-08-19T21:29:50.902Z,75.80
2018-08-19T21:32:20.900Z,76.30
2018-08-19T21:34:50.899Z,76.50
2018-08-19T21:37:27.110Z,77.30
2018-08-19T21:39:57.170Z,76.90
2018-08-19T21:42:27.686Z,76.80
2018-08-19T21:44:57.727Z,77.70
2018-08-19T21:47:27.899Z,77.80
2018-08-19T21:49:58.973Z,78.20
2018-08-19T21:52:29.226Z,78.70
2018-08-19T21:54:59.291Z,79.20
2018-08-19T21:57:29.424Z,79.20
2018-08-19T21:59:59.476Z,79.40
2018-08-19T22:02:34.424Z,79.60
2018-08-19T22:05:05.124Z,79.70
2018-08-19T22:07:35.358Z,79.90
2018-08-19T22:10:06.164Z,80.10
2018-08-19T22:12:37.107Z,79.80
2018-08-19T22:15:07.239Z,79.90
2018-08-19T22:17:37.335Z,80.00
2018-08-19T22:20:07.453Z,80.00
2018-08-19T22:22:37.510Z,80.30
2018-08-19T22:25:07.704Z,80.80
2018-08-19T22:27:37.742Z,81.10
2018-08-19T22:30:07.970Z,80.70
2018-08-19T22:32:38.031Z,81.00
2018-08-19T22:35:08.103Z,80.80
2018-08-19T22:37:38.230Z,80.90
2018-08-19T22:40:08.634Z,80.80
2018-08-19T22:42:38.685Z,80.70
2018-08-19T22:45:08.871Z,80.80
2018-08-19T22:47:38.908Z,81.10
2018-08-19T22:50:09.055Z,81.20
2018-08-19T22:52:39.291Z,81.20
2018-08-19T22:55:09.480Z,81.50
2018-08-19T22:57:39.490Z,81.80
2018-08-19T23:00:09.770Z,81.90
2018-08-19T23:02:39.842Z,82.00
2018-08-19T23:05:09.883Z,82.00
2018-08-19T23:07:40.061Z,82.10
2018-08-19T23:10:10.221Z,81.90
2018-08-19T23:12:42.631Z,81.80
2018-08-19T23:15:29.317Z,82.00
2018-08-19T23:17:59.398Z,81.70
2018-08-19T23:20:29.467Z,81.60
2018-08-19T23:22:59.524Z,81.90
2018-08-19T23:25:29.630Z,82.50
2018-08-19T23:27:59.637Z,82.50
2018-08-19T23:30:29.681Z,82.70
2018-08-19T23:32:59.737Z,82.30
2018-08-19T23:35:29.807Z,82.70
2018-08-19T23:37:59.842Z,83.10
2018-08-19T23:40:29.976Z,83.50
2018-08-19T23:43:00.051Z,83.80
2018-08-19T23:45:30.168Z,84.00
2018-08-19T23:48:00.200Z,84.10
2018-08-19T23:50:30.442Z,84.30
2018-08-19T23:53:00.527Z,84.50
2018-08-19T23:55:30.625Z,84.60
2018-08-19T23:58:00.751Z,84.70
